Time;durP1;ratioP1;P1;durP2;ratioP2;P2;SDS_P1;SDS_P2;PMS_P1;PMS_P2;Temp;Humidity;BMP_temperature;BMP_pressure;BME280_temperature;BME280_humidity;BME280_pressure;Samples;Min_cycle;Max_cycle;Signal;HPM_P1;HPM_P2
2023/04/01 00:01:44;;;;;;;;;;;;;;;15.73;48.03;100023.81;4989493;28;1142;-59
2023/04/01 00:04:10;;;;;;;;;;;;;;;15.48;48.74;100026.75;4982735;28;1919;-59
2023/04/01 00:06:36;;;;;;;;;;;;;;;15.26;49.26;100024.41;4991738;28;1044;-57
2023/04/01 00:09:01;;;;;;;;;;;;;;;16.24;47.20;100032.72;4984517;28;1057;-58
2023/04/01 00:11:27;;;;;;;;;;;;;;;16.75;45.47;100026.69;4991811;28;1124;-58
2023/04/01 00:13:53;;;;;;;;;;;;;;;15.92;47.62;100014.91;4999130;28;1080;-59
2023/04/01 00:16:18;;;;;;;;;;;;;;;15.56;48.71;100020.66;4998894;28;1097;-57
2023/04/01 00:18:44;;;;;;;;;;;;;;;15.40;48.90;100026.25;4982857;28;1338;-57
2023/04/01 00:21:10;;;;;;;;;;;;;;;15.60;48.54;100013.50;4999421;28;1036;-58
2023/04/01 00:23:35;;;;;;;;;;;;;;;17.06;44.96;100007.09;4990443;28;1914;-59
2023/04/01 00:26:02;;;;;;;;;;;;;;;16.19;47.14;100019.06;4980720;28;1255;-58
2023/04/01 00:28:28;;;;;;;;;;;;;;;15.76;48.08;100010.66;4980349;28;1068;-58
2023/04/01 00:30:53;;;;;;;;;;;;;;;15.46;48.84;100007.00;4980818;28;1125;-54
2023/04/01 00:33:20;;;;;;;;;;;;;;;15.30;49.18;100007.13;4997070;28;1060;-53
2023/04/01 00:35:45;;;;;;;;;;;;;;;16.33;46.85;100003.56;4998207;28;1244;-55
2023/04/01 00:38:11;;;;;;;;;;;;;;;17.24;44.55;99999.16;5018882;28;1271;-57
2023/04/01 00:40:40;;;;;;;;;;;;;;;16.11;47.01;100001.31;4996447;28;1102;-55
2023/04/01 00:43:18;;;;;;;;;;;;;;;15.67;48.15;99997.56;4998865;28;1303;-54
2023/04/01 00:45:44;;;;;;;;;;;;;;;15.40;49.02;99979.66;4996997;28;1973;-58
2023/04/01 00:48:11;;;;;;;;;;;;;;;15.23;49.31;99981.97;5017650;28;1100;-54
2023/04/01 00:50:36;;;;;;;;;;;;;;;16.10;47.66;99971.44;4997557;28;1073;-57
2023/04/01 00:53:02;;;;;;;;;;;;;;;16.74;45.61;99977.56;5013460;28;1132;-58
2023/04/01 00:55:28;;;;;;;;;;;;;;;15.85;47.87;99976.88;4997108;28;1103;-57
2023/04/01 00:57:54;;;;;;;;;;;;;;;15.51;48.87;99977.66;5022300;28;1217;-56
2023/04/01 01:00:19;;;;;;;;;;;;;;;15.33;49.10;99975.59;4977488;28;1310;-58
2023/04/01 01:02:45;;;;;;;;;;;;;;;15.43;48.95;99974.72;4997859;28;1037;-58
2023/04/01 01:05:14;;;;;;;;;;;;;;;16.95;45.30;99983.63;4996961;28;1977;-63
2023/04/01 01:07:48;;;;;;;;;;;;;;;16.06;47.40;99973.91;4996571;28;1288;-66
2023/04/01 01:10:14;;;;;;;;;;;;;;;15.59;48.63;99978.97;5013086;28;1625;-61
2023/04/01 01:12:41;;;;;;;;;;;;;;;15.41;48.98;99975.00;4996481;28;1201;-66
2023/04/01 01:15:25;;;;;;;;;;;;;;;15.56;48.76;99985.84;4980582;28;1181;-68
2023/04/01 01:17:58;;;;;;;;;;;;;;;17.10;45.04;99977.91;4997955;28;1169;-63
2023/04/01 01:20:42;;;;;;;;;;;;;;;16.05;47.39;99978.59;4997102;28;1224;-64
2023/04/01 01:23:14;;;;;;;;;;;;;;;15.60;48.61;99974.31;4997437;28;1168;-64
2023/04/01 01:25:43;;;;;;;;;;;;;;;15.50;48.69;99969.72;4997730;28;1912;-65
2023/04/01 01:28:27;;;;;;;;;;;;;;;17.04;44.95;99962.63;4996410;28;1124;-64
2023/04/01 01:30:53;;;;;;;;;;;;;;;16.05;47.20;99959.41;4997274;28;1034;-68
2023/04/01 01:33:30;;;;;;;;;;;;;;;15.72;48.34;99964.63;4995789;28;1246;-66
2023/04/01 01:35:56;;;;;;;;;;;;;;;15.49;48.79;99962.63;4996139;28;1170;-66
2023/04/01 01:38:23;;;;;;;;;;;;;;;15.51;48.87;99952.19;4996595;28;1181;-64
2023/04/01 01:40:59;;;;;;;;;;;;;;;17.10;45.16;99966.94;4996555;28;1160;-65
2023/04/01 01:43:26;;;;;;;;;;;;;;;16.12;47.13;99974.69;5012698;28;1165;-68
2023/04/01 01:45:55;;;;;;;;;;;;;;;15.68;48.35;99974.53;4995576;28;1907;-58
2023/04/01 01:48:21;;;;;;;;;;;;;;;15.40;48.99;99971.44;4995767;28;1166;-65
2023/04/01 01:50:47;;;;;;;;;;;;;;;15.23;49.45;99976.50;5002522;28;1186;-64
2023/04/01 01:53:14;;;;;;;;;;;;;;;16.72;46.12;99975.09;4979825;28;1084;-63
2023/04/01 01:55:41;;;;;;;;;;;;;;;16.33;46.93;99976.13;4991121;28;1294;-65
2023/04/01 01:58:15;;;;;;;;;;;;;;;15.80;48.04;99984.31;4988816;28;1394;-62
2023/04/01 02:00:41;;;;;;;;;;;;;;;15.47;48.85;99975.78;4995585;28;1302;-64
2023/04/01 02:03:08;;;;;;;;;;;;;;;15.24;49.30;99972.66;4979458;28;1115;-62
2023/04/01 02:05:33;;;;;;;;;;;;;;;15.47;49.05;99967.56;4995733;28;1950;-63
2023/04/01 02:08:13;;;;;;;;;;;;;;;17.01;45.19;99955.00;4995459;28;1269;-65
2023/04/01 02:10:40;;;;;;;;;;;;;;;16.11;47.28;99957.41;5011554;28;1251;-65
2023/04/01 02:13:07;;;;;;;;;;;;;;;15.63;48.24;99952.63;4998175;28;1484;-64
2023/04/01 02:15:33;;;;;;;;;;;;;;;15.36;49.28;99951.22;5005870;28;1395;-63
2023/04/01 02:17:59;;;;;;;;;;;;;;;15.65;48.66;99950.41;4976096;28;1504;-66
2023/04/01 02:20:25;;;;;;;;;;;;;;;17.08;44.85;99944.44;4993707;28;1619;-62
2023/04/01 02:22:54;;;;;;;;;;;;;;;16.20;47.04;99946.63;4960400;28;1319;-67
2023/04/01 02:25:21;;;;;;;;;;;;;;;15.68;48.28;99944.38;4978712;28;1903;-62
2023/04/01 02:27:47;;;;;;;;;;;;;;;15.48;48.78;99939.06;4995452;28;1077;-66
2023/04/01 02:30:13;;;;;;;;;;;;;;;15.30;49.31;99937.81;4995364;28;1283;-61
2023/04/01 02:32:39;;;;;;;;;;;;;;;15.76;48.45;99947.59;5005114;28;1546;-63
2023/04/01 02:35:10;;;;;;;;;;;;;;;17.16;45.00;99931.16;4976712;28;1138;-64
2023/04/01 02:37:36;;;;;;;;;;;;;;;16.21;46.82;99929.06;4995625;28;1212;-64
2023/04/01 02:40:02;;;;;;;;;;;;;;;15.77;48.03;99924.53;4996699;28;1165;-63
2023/04/01 02:42:28;;;;;;;;;;;;;;;15.53;48.79;99934.34;5028229;28;1149;-61
2023/04/01 02:44:54;;;;;;;;;;;;;;;15.26;49.18;99929.34;4982138;28;1903;-68
2023/04/01 02:47:19;;;;;;;;;;;;;;;15.77;48.31;99914.41;4995076;28;1295;-65
2023/04/01 02:49:45;;;;;;;;;;;;;;;17.08;44.84;99907.91;4996519;28;1291;-65
2023/04/01 02:52:10;;;;;;;;;;;;;;;16.10;47.26;99911.09;4995386;28;1068;-63
2023/04/01 02:54:36;;;;;;;;;;;;;;;15.64;48.52;99904.94;4977955;28;1017;-64
2023/04/01 02:57:01;;;;;;;;;;;;;;;15.49;48.74;99905.09;4988294;28;1180;-60
2023/04/01 02:59:27;;;;;;;;;;;;;;;15.31;49.15;99899.19;5027849;28;1214;-62
2023/04/01 03:01:53;;;;;;;;;;;;;;;16.71;46.00;99890.31;4986630;28;1103;-60
2023/04/01 03:04:19;;;;;;;;;;;;;;;16.56;46.33;99880.34;4993111;28;1968;-60
2023/04/01 03:06:44;;;;;;;;;;;;;;;15.88;47.77;99887.75;4995081;28;1240;-63
2023/04/01 03:09:10;;;;;;;;;;;;;;;15.58;48.75;99889.66;4996513;28;1048;-61
2023/04/01 03:11:36;;;;;;;;;;;;;;;15.42;49.22;99896.34;4996135;28;1138;-59
2023/04/01 03:14:01;;;;;;;;;;;;;;;15.22;49.46;99890.78;4996383;28;1174;-62
2023/04/01 03:16:27;;;;;;;;;;;;;;;15.79;48.78;99883.97;4995105;28;1345;-62
2023/04/01 03:18:55;;;;;;;;;;;;;;;17.14;45.38;99878.44;4995115;28;1160;-60
2023/04/01 03:21:21;;;;;;;;;;;;;;;16.60;46.40;99876.69;4997900;28;1278;-60
2023/04/01 03:23:47;;;;;;;;;;;;;;;15.95;47.83;99873.69;4999642;28;1913;-60
2023/04/01 03:26:13;;;;;;;;;;;;;;;15.60;48.88;99865.53;4981577;28;1287;-62
2023/04/01 03:28:39;;;;;;;;;;;;;;;15.42;49.17;99863.47;4980737;28;1243;-60
2023/04/01 03:31:04;;;;;;;;;;;;;;;16.47;47.19;99857.44;4998071;28;1757;-61
2023/04/01 03:33:37;;;;;;;;;;;;;;;17.37;45.04;99857.44;5031435;28;1179;-60
2023/04/01 03:36:06;;;;;;;;;;;;;;;16.31;47.51;99852.13;4999494;28;1081;-61
2023/04/01 03:38:35;;;;;;;;;;;;;;;15.92;48.28;99858.63;5014672;28;1104;-58
2023/04/01 03:41:00;;;;;;;;;;;;;;;15.66;49.19;99861.63;4999696;28;1144;-67
2023/04/01 03:43:26;;;;;;;;;;;;;;;16.72;46.83;99857.06;4998571;28;1147;-58
2023/04/01 03:45:52;;;;;;;;;;;;;;;17.21;45.25;99857.72;4997668;28;1918;-59
2023/04/01 03:48:17;;;;;;;;;;;;;;;16.24;47.66;99866.22;4998333;28;1406;-62
2023/04/01 03:50:43;;;;;;;;;;;;;;;15.88;48.35;99863.09;5014692;28;1133;-60
2023/04/01 03:53:09;;;;;;;;;;;;;;;15.67;49.07;99865.16;4999352;28;1049;-62
2023/04/01 03:55:36;;;;;;;;;;;;;;;15.61;49.47;99872.63;4998025;28;1291;-59
2023/04/01 03:58:02;;;;;;;;;;;;;;;17.16;45.48;99870.72;4998018;28;1185;-59
2023/04/01 04:00:28;;;;;;;;;;;;;;;16.64;46.42;99876.13;5030292;28;1221;-63
2023/04/01 04:02:56;;;;;;;;;;;;;;;16.00;48.07;99873.63;4998341;28;1245;-63
2023/04/01 04:05:27;;;;;;;;;;;;;;;15.68;48.94;99883.25;5030636;28;2001;-58
2023/04/01 04:07:53;;;;;;;;;;;;;;;15.49;49.45;99886.72;4997756;28;1196;-59
2023/04/01 04:10:19;;;;;;;;;;;;;;;16.99;46.04;99883.06;4998608;28;1211;-60
2023/04/01 04:12:44;;;;;;;;;;;;;;;16.56;46.61;99881.19;4996889;28;1124;-63
2023/04/01 04:15:10;;;;;;;;;;;;;;;15.93;48.23;99881.38;5013434;28;1231;-57
2023/04/01 04:17:36;;;;;;;;;;;;;;;15.64;48.94;99872.06;4998079;28;1227;-59
2023/04/01 04:20:02;;;;;;;;;;;;;;;15.50;49.39;99873.81;4997756;28;1232;-58
2023/04/01 04:22:27;;;;;;;;;;;;;;;15.26;49.76;99882.78;4997946;28;1147;-59
2023/04/01 04:24:53;;;;;;;;;;;;;;;16.75;46.36;99872.13;4997369;28;1961;-58
2023/04/01 04:27:19;;;;;;;;;;;;;;;16.90;45.95;99873.84;4997571;28;1095;-59
2023/04/01 04:29:54;;;;;;;;;;;;;;;16.04;47.74;99877.44;5000261;28;1227;-60
2023/04/01 04:32:20;;;;;;;;;;;;;;;15.69;48.97;99862.97;4998568;28;1076;-58
2023/04/01 04:34:45;;;;;;;;;;;;;;;15.47;49.44;99864.25;4996735;28;1503;-58
2023/04/01 04:37:11;;;;;;;;;;;;;;;15.89;48.58;99864.69;4997563;28;1157;-60
2023/04/01 04:39:36;;;;;;;;;;;;;;;17.31;44.84;99870.47;5013426;28;1227;-59
2023/04/01 04:42:02;;;;;;;;;;;;;;;16.40;47.03;99866.81;4996954;28;1260;-55
2023/04/01 04:44:28;;;;;;;;;;;;;;;15.87;48.19;99861.44;4996157;28;1922;-55
2023/04/01 04:46:54;;;;;;;;;;;;;;;15.65;48.82;99856.44;4996795;28;1161;-61
2023/04/01 04:49:20;;;;;;;;;;;;;;;15.41;49.31;99851.72;4996653;28;1129;-60
2023/04/01 04:51:45;;;;;;;;;;;;;;;16.49;47.08;99855.19;4997532;28;1152;-56
2023/04/01 04:54:13;;;;;;;;;;;;;;;17.14;45.11;99857.28;4996689;28;1218;-56
2023/04/01 04:56:51;;;;;;;;;;;;;;;16.10;47.81;99850.75;4996525;28;1214;-56
2023/04/01 04:59:17;;;;;;;;;;;;;;;15.75;48.63;99856.31;5028072;28;1229;-58
2023/04/01 05:01:50;;;;;;;;;;;;;;;15.52;49.04;99855.19;4995369;28;1187;-56
2023/04/01 05:04:15;;;;;;;;;;;;;;;15.33;49.49;99844.97;4996311;28;1917;-58
2023/04/01 05:06:42;;;;;;;;;;;;;;;16.70;46.20;99851.03;4996101;28;1090;-57
2023/04/01 05:09:08;;;;;;;;;;;;;;;16.41;47.08;99845.69;4997693;28;1048;-58
2023/04/01 05:11:33;;;;;;;;;;;;;;;16.86;45.80;99845.34;5012868;28;1321;-58
2023/04/01 05:13:59;;;;;;;;;;;;;;;15.97;47.81;99853.09;4995705;28;1210;-57
2023/04/01 05:16:26;;;;;;;;;;;;;;;15.91;48.28;99848.78;4996187;28;1387;-57
2023/04/01 05:18:51;;;;;;;;;;;;;;;16.27;47.32;99844.78;4996199;28;1107;-58
2023/04/01 05:21:17;;;;;;;;;;;;;;;15.83;48.08;99846.69;4996241;28;1115;-58
2023/04/01 05:23:43;;;;;;;;;;;;;;;17.54;44.62;99835.69;4996099;28;1914;-56
2023/04/01 05:26:10;;;;;;;;;;;;;;;16.21;47.28;99830.31;5028351;28;1179;-60
2023/04/01 05:28:36;;;;;;;;;;;;;;;17.32;45.25;99830.06;4996038;28;1311;-62
2023/04/01 05:31:02;;;;;;;;;;;;;;;17.13;45.52;99827.38;4996113;28;1124;-60
2023/04/01 05:33:33;;;;;;;;;;;;;;;16.26;47.07;99827.50;4996143;28;1505;-59
2023/04/01 05:36:08;;;;;;;;;;;;;;;16.90;46.44;99819.75;4996187;28;1125;-56
2023/04/01 05:38:34;;;;;;;;;;;;;;;16.77;46.50;99815.81;4995721;28;1194;-57
2023/04/01 05:41:01;;;;;;;;;;;;;;;17.01;46.23;99817.66;4995955;28;1177;-57
2023/04/01 05:43:29;;;;;;;;;;;;;;;18.32;43.00;99821.25;4994679;28;1376;-59
2023/04/01 05:45:57;;;;;;;;;;;;;;;16.82;46.21;99814.91;5027821;28;1981;-58
2023/04/01 05:48:36;;;;;;;;;;;;;;;17.19;45.74;99804.19;4995630;28;1386;-57
2023/04/01 05:51:02;;;;;;;;;;;;;;;16.97;45.75;99807.56;4982964;28;1042;-57
2023/04/01 05:53:28;;;;;;;;;;;;;;;16.37;46.73;99804.31;4989097;28;1573;-63
2023/04/01 05:55:54;;;;;;;;;;;;;;;17.81;44.28;99803.88;4988731;28;1402;-62
2023/04/01 05:58:19;;;;;;;;;;;;;;;16.55;46.62;99799.13;4995340;28;1259;-60
2023/04/01 06:00:46;;;;;;;;;;;;;;;18.35;43.29;99793.13;4995386;28;1204;-62
2023/04/01 06:03:12;;;;;;;;;;;;;;;17.76;44.16;99790.22;4995533;28;1115;-57
2023/04/01 06:05:42;;;;;;;;;;;;;;;16.82;46.21;99781.97;4996558;28;1943;-63
2023/04/01 06:08:12;;;;;;;;;;;;;;;18.56;42.55;99778.91;5015438;28;1083;-63
2023/04/01 06:10:44;;;;;;;;;;;;;;;17.16;45.47;99780.88;4995411;28;1167;-62
2023/04/01 06:13:12;;;;;;;;;;;;;;;16.76;45.77;99794.16;4994344;28;1196;-58
2023/04/01 06:15:51;;;;;;;;;;;;;;;16.55;45.83;99786.22;4995488;28;1316;-59
2023/04/01 06:18:38;;;;;;;;;;;;;;;17.94;44.04;99780.25;4978716;28;1150;-61
2023/04/01 06:21:06;;;;;;;;;;;;;;;16.68;46.55;99781.91;4994659;28;1113;-57
2023/04/01 06:23:51;;;;;;;;;;;;;;;16.55;46.69;99786.22;4995259;28;1153;-59
2023/04/01 06:26:23;;;;;;;;;;;;;;;17.13;45.89;99775.19;4995137;28;1281;-58
2023/04/01 06:29:07;;;;;;;;;;;;;;;16.51;46.47;99770.63;4975226;28;1101;-58
2023/04/01 06:31:40;;;;;;;;;;;;;;;16.69;46.97;99780.81;4982718;28;1127;-57
2023/04/01 06:34:24;;;;;;;;;;;;;;;16.94;46.31;99776.03;4995010;28;1129;-58
2023/04/01 06:37:09;;;;;;;;;;;;;;;16.57;47.00;99767.53;4994796;28;1152;-57
2023/04/01 06:39:38;;;;;;;;;;;;;;;17.52;45.32;99769.22;4989881;28;1136;-58
2023/04/01 06:42:14;;;;;;;;;;;;;;;16.72;46.86;99763.72;4995875;28;1144;-56
2023/04/01 06:44:43;;;;;;;;;;;;;;;16.84;47.07;99748.72;4994557;28;1955;-56
2023/04/01 06:48:06;;;;;;;;;;;;;;;16.83;46.45;99761.63;4940745;29;1272;-53
2023/04/01 06:50:52;;;;;;;;;;;;;;;16.42;46.28;99754.88;4934538;29;1000;-54
2023/04/01 06:53:57;;;;;;;;;;;;;;;17.40;45.69;99757.91;4981175;28;1074;-57
2023/04/01 06:56:46;;;;;;;;;;;;;;;17.03;46.93;99760.50;4977339;28;1009;-56
2023/04/01 06:59:22;;;;;;;;;;;;;;;18.44;43.18;99760.19;4982402;28;1425;-57
2023/04/01 07:01:53;;;;;;;;;;;;;;;17.08;46.17;99776.91;5008657;28;1395;-57
2023/04/01 07:04:42;;;;;;;;;;;;;;;16.66;46.32;99777.81;4981791;28;1910;-56
2023/04/01 07:07:20;;;;;;;;;;;;;;;17.06;46.47;99779.13;4979406;28;1409;-57
2023/04/01 07:09:55;;;;;;;;;;;;;;;17.09;46.00;99767.53;4998150;28;1062;-54
2023/04/01 07:12:35;;;;;;;;;;;;;;;18.16;44.09;99768.50;4995670;28;2673;-58
2023/04/01 07:15:40;;;;;;;;;;;;;;;18.19;43.84;99764.31;4966581;28;2622;-57
2023/04/01 07:18:16;;;;;;;;;;;;;;;17.08;45.99;99763.16;4975170;28;2575;-62
2023/04/01 07:20:42;;;;;;;;;;;;;;;16.84;45.72;99765.19;4957667;28;2906;-47
2023/04/01 07:23:13;;;;;;;;;;;;;;;17.54;45.29;99761.47;4986904;28;2375;-48
2023/04/01 07:26:19;;;;;;;;;;;;;;;16.64;46.36;99761.66;4984162;28;1382;-45
2023/04/01 07:29:05;;;;;;;;;;;;;;;17.66;45.40;99751.94;4996701;28;1316;-45
2023/04/01 07:31:47;;;;;;;;;;;;;;;16.77;46.41;99744.44;4996699;28;1617;-46
2023/04/01 07:34:21;;;;;;;;;;;;;;;18.61;43.28;99754.00;4999236;28;1020;-42
2023/04/01 07:36:53;;;;;;;;;;;;;;;17.48;45.66;99750.91;5013651;28;1199;-44
2023/04/01 07:39:28;;;;;;;;;;;;;;;16.92;45.90;99743.38;4997634;28;1306;-44
2023/04/01 07:42:13;;;;;;;;;;;;;;;16.74;45.97;99744.22;4997631;28;1626;-47
2023/04/01 07:44:55;;;;;;;;;;;;;;;16.44;45.96;99743.59;4994154;28;1981;-58
2023/04/01 07:47:41;;;;;;;;;;;;;;;17.44;45.38;99729.50;5036246;28;1317;-55
2023/04/01 07:50:10;;;;;;;;;;;;;;;16.80;46.53;99742.19;4997354;28;1229;-57
2023/04/01 07:52:51;;;;;;;;;;;;;;;16.51;46.14;99724.81;4981671;28;1229;-61
2023/04/01 07:55:24;;;;;;;;;;;;;;;17.23;45.83;99722.78;4996342;28;1419;-57
2023/04/01 07:57:53;;;;;;;;;;;;;;;16.57;46.57;99731.84;4995999;28;1280;-58
2023/04/01 08:00:20;;;;;;;;;;;;;;;16.43;46.07;99722.75;4977953;28;1175;-55
2023/04/01 08:02:59;;;;;;;;;;;;;;;17.53;45.83;99721.38;4982388;28;1358;-58
2023/04/01 08:05:30;;;;;;;;;;;;;;;16.73;46.65;99718.69;4997576;28;1879;-57
2023/04/01 08:07:57;;;;;;;;;;;;;;;16.44;46.55;99707.91;5030361;28;1162;-58
2023/04/01 08:10:55;;;;;;;;;;;;;;;16.25;46.28;99707.94;4985927;28;1103;-56
2023/04/01 08:13:48;;;;;;;;;;;;;;;16.84;46.68;99711.09;4993411;28;1129;-55
2023/04/01 08:16:37;;;;;;;;;;;;;;;16.84;46.87;99697.34;4995650;28;1010;-57
2023/04/01 08:19:23;;;;;;;;;;;;;;;18.04;44.81;99703.00;4981227;28;1197;-57
2023/04/01 08:21:54;;;;;;;;;;;;;;;16.82;46.80;99696.84;4997008;28;1096;-58
2023/04/01 08:24:29;;;;;;;;;;;;;;;16.56;46.63;99688.22;4977869;28;1899;-61
2023/04/01 08:26:56;;;;;;;;;;;;;;;17.18;46.58;99688.00;5019611;28;1250;-59
2023/04/01 08:29:23;;;;;;;;;;;;;;;16.64;46.72;99679.31;4980746;28;1300;-60
2023/04/01 08:31:50;;;;;;;;;;;;;;;17.73;45.65;99681.66;4996648;28;1160;-60
2023/04/01 08:34:20;;;;;;;;;;;;;;;16.92;46.79;99687.66;4980494;28;1104;-58
2023/04/01 08:36:48;;;;;;;;;;;;;;;16.51;46.72;99686.41;5013295;28;1207;-56
2023/04/01 08:39:16;;;;;;;;;;;;;;;16.29;46.59;99689.75;4980762;28;1209;-59
2023/04/01 08:42:02;;;;;;;;;;;;;;;17.20;46.30;99679.44;4977369;28;1282;-58
2023/04/01 08:45:15;;;;;;;;;;;;;;;17.50;46.27;99677.19;4989547;28;1922;-58
2023/04/01 08:47:52;;;;;;;;;;;;;;;19.05;42.76;99669.72;5014098;28;1110;-62
2023/04/01 08:50:17;;;;;;;;;;;;;;;17.68;45.55;99668.00;4996792;28;1006;-62
2023/04/01 08:53:00;;;;;;;;;;;;;;;17.06;46.24;99677.50;4996601;28;1230;-62
2023/04/01 08:55:44;;;;;;;;;;;;;;;16.83;46.21;99667.47;5029313;28;1123;-58
2023/04/01 08:58:26;;;;;;;;;;;;;;;16.57;45.99;99665.97;4997114;28;1095;-61
2023/04/01 09:01:42;;;;;;;;;;;;;;;17.42;45.96;99667.75;4994131;28;1068;-58
2023/04/01 09:04:42;;;;;;;;;;;;;;;16.67;46.60;99667.72;5029298;28;1968;-59
2023/04/01 09:07:27;;;;;;;;;;;;;;;16.49;46.06;99661.16;5016026;28;1052;-59
2023/04/01 09:10:02;;;;;;;;;;;;;;;17.08;46.36;99660.72;5027566;28;1462;-56
2023/04/01 09:12:35;;;;;;;;;;;;;;;16.56;46.87;99666.28;4996247;28;1301;-55
2023/04/01 09:15:17;;;;;;;;;;;;;;;17.86;45.32;99646.19;5028656;28;1387;-58
2023/04/01 09:17:43;;;;;;;;;;;;;;;16.84;46.71;99653.41;4995299;28;1156;-61
2023/04/01 09:20:27;;;;;;;;;;;;;;;16.53;46.67;99648.47;4992421;28;1253;-60
2023/04/01 09:22:56;;;;;;;;;;;;;;;17.39;46.19;99643.59;4995018;28;1426;-44
2023/04/01 09:25:34;;;;;;;;;;;;;;;16.58;47.21;99642.09;5003587;28;1971;-45
2023/04/01 09:28:12;;;;;;;;;;;;;;;18.29;44.41;99648.53;4996450;28;1107;-46
2023/04/01 09:31:01;;;;;;;;;;;;;;;17.20;46.26;99635.50;4996055;28;1256;-47
2023/04/01 09:33:45;;;;;;;;;;;;;;;16.70;46.77;99633.38;5010392;28;1594;-47
2023/04/01 09:36:20;;;;;;;;;;;;;;;17.61;45.91;99640.97;5016475;28;1251;-43
2023/04/01 09:38:55;;;;;;;;;;;;;;;16.79;46.79;99628.00;5028872;28;1263;-47
2023/04/01 09:41:39;;;;;;;;;;;;;;;16.45;46.84;99621.72;4996403;28;1018;-45
2023/04/01 09:44:30;;;;;;;;;;;;;;;17.21;46.65;99609.66;4994168;28;2347;-47
2023/04/01 09:47:46;;;;;;;;;;;;;;;16.54;46.95;99614.44;4997722;28;1173;-43
2023/04/01 09:50:32;;;;;;;;;;;;;;;17.40;46.06;99610.34;4950659;29;1307;-48
2023/04/01 09:53:00;;;;;;;;;;;;;;;16.63;46.82;99600.84;4921199;29;1266;-41
2023/04/01 09:55:39;;;;;;;;;;;;;;;17.09;46.56;99582.69;4973608;28;1095;-46
2023/04/01 09:58:23;;;;;;;;;;;;;;;16.88;46.90;99582.25;4979541;28;1234;-46
2023/04/01 10:01:14;;;;;;;;;;;;;;;16.49;46.98;99564.31;4967498;28;1099;-59
2023/04/01 10:03:54;;;;;;;;;;;;;;;16.36;46.56;99555.75;4994853;28;1383;-60
2023/04/01 10:06:32;;;;;;;;;;;;;;;17.16;46.54;99552.88;4994898;28;1005;-60
2023/04/01 10:09:20;;;;;;;;;;;;;;;16.65;46.98;99554.69;5003077;28;1100;-57
2023/04/01 10:11:53;;;;;;;;;;;;;;;17.53;45.78;99555.66;4994126;28;1285;-58
2023/04/01 10:14:28;;;;;;;;;;;;;;;16.68;46.99;99537.63;4995109;28;1213;-55
2023/04/01 10:17:20;;;;;;;;;;;;;;;16.46;46.77;99537.50;4994706;28;1213;-58
2023/04/01 10:20:05;;;;;;;;;;;;;;;17.18;46.45;99539.66;4964757;28;1118;-58
2023/04/01 10:22:52;;;;;;;;;;;;;;;16.62;47.00;99543.50;4994970;28;1201;-57
2023/04/01 10:25:37;;;;;;;;;;;;;;;16.38;46.60;99539.00;5015326;28;1980;-61
2023/04/01 10:28:45;;;;;;;;;;;;;;;17.74;45.57;99543.06;4991372;28;1213;-57
2023/04/01 10:31:44;;;;;;;;;;;;;;;16.62;47.07;99549.00;4969474;28;1261;-58
2023/04/01 10:34:13;;;;;;;;;;;;;;;18.16;44.90;99544.81;4995685;28;1200;-59
2023/04/01 10:36:48;;;;;;;;;;;;;;;17.16;46.79;99541.09;5021590;28;1214;-62
2023/04/01 10:39:21;;;;;;;;;;;;;;;16.71;46.96;99530.72;4992721;28;1149;-59
2023/04/01 10:42:00;;;;;;;;;;;;;;;16.80;47.00;99528.06;5001638;28;1217;-58
2023/04/01 10:45:03;;;;;;;;;;;;;;;16.89;47.12;99527.06;4990057;28;1911;-59
2023/04/01 10:47:40;;;;;;;;;;;;;;;16.57;46.59;99530.69;5027575;28;1350;-59
2023/04/01 10:50:18;;;;;;;;;;;;;;;17.36;46.28;99518.66;4982397;28;1163;-61
2023/04/01 10:53:04;;;;;;;;;;;;;;;16.63;46.97;99515.75;4978435;28;1362;-58
2023/04/01 10:56:28;;;;;;;;;;;;;;;17.79;45.41;99509.97;4995749;28;1097;-58
2023/04/01 10:59:23;;;;;;;;;;;;;;;16.74;46.86;99503.44;4935990;29;1253;-58
2023/04/01 11:02:56;;;;;;;;;;;;;;;17.44;46.32;99490.41;4974218;28;1148;-57
2023/04/01 11:05:58;;;;;;;;;;;;;;;16.62;46.91;99485.88;4924793;29;1902;-56
2023/04/01 11:08:26;;;;;;;;;;;;;;;16.35;46.78;99488.28;4988436;28;1265;-56
2023/04/01 11:11:13;;;;;;;;;;;;;;;17.54;46.08;99470.13;5006841;28;1317;-56
2023/04/01 11:14:00;;;;;;;;;;;;;;;16.71;46.83;99471.13;4986201;28;1486;-58
2023/04/01 11:16:52;;;;;;;;;;;;;;;18.22;44.54;99472.06;4966729;28;1147;-56
2023/04/01 11:19:18;;;;;;;;;;;;;;;17.05;46.89;99478.13;4981703;28;1389;-57
2023/04/01 11:21:48;;;;;;;;;;;;;;;16.69;46.86;99473.38;4986761;28;1586;-56
2023/04/01 11:24:18;;;;;;;;;;;;;;;16.55;46.25;99473.38;5009386;28;1910;-57
2023/04/01 11:27:01;;;;;;;;;;;;;;;17.51;45.93;99470.75;4981230;28;1199;-57
2023/04/01 11:29:47;;;;;;;;;;;;;;;16.71;46.94;99473.88;4995751;28;862;-57
2023/04/01 11:32:21;;;;;;;;;;;;;;;18.45;44.60;99465.34;4994657;28;1301;-57
2023/04/01 11:34:54;;;;;;;;;;;;;;;17.56;46.28;99459.66;4997891;28;1261;-56
2023/04/01 11:37:19;;;;;;;;;;;;;;;16.99;46.85;99470.31;4987916;28;1084;-56
2023/04/01 11:40:18;;;;;;;;;;;;;;;16.69;46.35;99467.88;4995424;28;1294;-57
2023/04/01 11:43:25;;;;;;;;;;;;;;;17.21;46.86;99470.34;4989019;28;1195;-57
2023/04/01 11:46:10;;;;;;;;;;;;;;;16.62;46.90;99464.75;4997351;28;1914;-56
2023/04/01 11:48:50;;;;;;;;;;;;;;;16.56;46.08;99458.53;4997891;28;1372;-58
2023/04/01 11:51:16;;;;;;;;;;;;;;;17.06;47.09;99454.22;4978738;28;1195;-59
2023/04/01 11:53:54;;;;;;;;;;;;;;;16.56;47.15;99441.25;5029699;28;1289;-55
2023/04/01 11:56:23;;;;;;;;;;;;;;;16.37;46.73;99442.19;4998144;28;1048;-59
2023/04/01 11:58:54;;;;;;;;;;;;;;;16.85;47.00;99437.38;4987365;28;978;-58
2023/04/01 12:01:35;;;;;;;;;;;;;;;16.64;47.36;99432.31;4998982;28;1092;-57
2023/04/01 12:04:03;;;;;;;;;;;;;;;16.46;46.66;99430.50;4998920;28;1961;-57
2023/04/01 12:06:38;;;;;;;;;;;;;;;17.19;46.87;99430.59;4998318;28;1129;-59
2023/04/01 12:09:17;;;;;;;;;;;;;;;16.59;47.00;99440.63;4997115;28;1080;-59
2023/04/01 12:12:01;;;;;;;;;;;;;;;16.29;46.84;99422.88;4997379;28;997;-58
2023/04/01 12:14:30;;;;;;;;;;;;;;;17.34;46.14;99432.16;4998392;28;1056;-59
2023/04/01 12:16:59;;;;;;;;;;;;;;;16.55;47.24;99421.25;4996707;28;855;-57
2023/04/01 12:19:34;;;;;;;;;;;;;;;17.61;45.94;99409.22;4997614;28;1141;-56
2023/04/01 12:22:02;;;;;;;;;;;;;;;17.13;46.92;99396.94;4984935;28;1109;-56
2023/04/01 12:24:28;;;;;;;;;;;;;;;16.73;47.26;99391.22;4998475;28;1910;-56
2023/04/01 12:26:54;;;;;;;;;;;;;;;16.53;46.72;99407.00;4998415;28;1156;-57
2023/04/01 12:29:38;;;;;;;;;;;;;;;17.57;46.14;99409.06;4997541;28;885;-57
2023/04/01 12:32:09;;;;;;;;;;;;;;;16.72;47.25;99408.81;4998444;28;838;-60
2023/04/01 12:34:39;;;;;;;;;;;;;;;16.38;46.96;99407.31;4998536;28;1160;-61
2023/04/01 12:37:04;;;;;;;;;;;;;;;16.98;47.03;99408.28;4997827;28;1125;-61
2023/04/01 12:39:33;;;;;;;;;;;;;;;16.92;46.99;99413.06;4997793;28;1438;-57
2023/04/01 12:42:12;;;;;;;;;;;;;;;16.47;47.18;99416.47;4997489;28;907;-59
2023/04/01 12:44:37;;;;;;;;;;;;;;;17.30;46.80;99415.47;4997992;28;1898;-57
2023/04/01 12:47:06;;;;;;;;;;;;;;;16.71;46.97;99418.16;4990387;28;1255;-58
2023/04/01 12:49:41;;;;;;;;;;;;;;;17.90;45.69;99407.94;4997542;28;1232;-57
2023/04/01 12:52:25;;;;;;;;;;;;;;;17.29;46.72;99400.13;5025053;28;936;-54
2023/04/01 12:54:51;;;;;;;;;;;;;;;16.71;46.97;99410.72;4989077;28;1077;-46
2023/04/01 12:57:19;;;;;;;;;;;;;;;16.53;46.85;99408.94;5000546;28;1125;-43
2023/04/01 12:59:54;;;;;;;;;;;;;;;18.00;45.86;99412.41;4992067;28;1042;-47
2023/04/01 13:02:38;;;;;;;;;;;;;;;16.97;47.33;99404.72;4981294;28;1523;-46
2023/04/01 13:05:07;;;;;;;;;;;;;;;16.54;47.19;99394.09;4990251;28;2377;-48
2023/04/01 13:07:46;;;;;;;;;;;;;;;17.49;46.96;99362.25;4997964;28;1076;-46
2023/04/01 13:10:32;;;;;;;;;;;;;;;16.92;47.41;99372.69;4997145;28;1187;-47
2023/04/01 13:13:04;;;;;;;;;;;;;;;16.60;47.06;99403.84;5000459;28;1234;-47
2023/04/01 13:15:30;;;;;;;;;;;;;;;17.27;47.19;99388.63;4997305;28;1548;-47
2023/04/01 13:17:58;;;;;;;;;;;;;;;16.74;47.27;99371.69;4997170;28;949;-47
2023/04/01 13:20:24;;;;;;;;;;;;;;;18.29;45.39;99378.84;5027224;28;1111;-58
2023/04/01 13:23:01;;;;;;;;;;;;;;;17.30;47.08;99388.00;4996786;28;1361;-61
2023/04/01 13:25:39;;;;;;;;;;;;;;;16.82;47.18;99377.59;4994921;28;1906;-64
2023/04/01 13:28:22;;;;;;;;;;;;;;;16.64;46.54;99373.88;4995904;28;1044;-59
2023/04/01 13:30:50;;;;;;;;;;;;;;;17.40;46.86;99381.44;4984324;28;1104;-61
2023/04/01 13:33:16;;;;;;;;;;;;;;;16.72;47.45;99373.94;4995794;28;1327;-62